createdAt,value
2023-05-19T00:01:03.372Z,8.00
2023-05-19T00:02:12.174Z,7.50
2023-05-19T00:03:21.918Z,7.10
2023-05-19T00:04:31.241Z,8.00
2023-05-19T00:05:41.396Z,7.30
2023-05-19T00:06:54.235Z,6.00
2023-05-19T00:08:01.836Z,7.40
2023-05-19T00:09:10.692Z,7.20
2023-05-19T00:10:22.302Z,7.80
2023-05-19T00:11:30.989Z,5.70
2023-05-19T00:12:38.823Z,7.10
2023-05-19T00:13:48.830Z,7.50
2023-05-19T00:14:58.492Z,8.50
2023-05-19T00:16:07.484Z,8.10
2023-05-19T00:17:14.514Z,8.00
2023-05-19T00:18:21.189Z,8.20
2023-05-19T00:19:32.714Z,8.10
2023-05-19T00:20:38.974Z,8.40
2023-05-19T00:21:45.222Z,8.00
2023-05-19T00:22:51.426Z,7.10
2023-05-19T00:23:58.706Z,5.60
2023-05-19T00:25:06.865Z,8.90
2023-05-19T00:26:13.503Z,7.30
2023-05-19T00:27:19.840Z,8.50
2023-05-19T00:28:26.266Z,7.80
2023-05-19T00:29:33.034Z,7.20
2023-05-19T00:30:39.011Z,7.20
2023-05-19T00:31:46.425Z,8.20
2023-05-19T00:32:54.406Z,9.20
2023-05-19T00:34:01.509Z,7.20
2023-05-19T00:35:09.896Z,8.60
2023-05-19T00:36:15.913Z,7.60
2023-05-19T00:37:22.941Z,8.80
2023-05-19T00:38:31.504Z,8.20
2023-05-19T00:39:37.619Z,9.20
2023-05-19T00:40:44.149Z,6.90
2023-05-19T00:41:50.462Z,7.20
2023-05-19T00:42:56.407Z,8.40
2023-05-19T00:44:04.258Z,7.10
2023-05-19T00:45:11.796Z,6.80
2023-05-19T00:46:18.495Z,7.60
2023-05-19T00:47:24.906Z,6.80
2023-05-19T00:48:31.121Z,11.60
2023-05-19T00:49:38.150Z,7.60
2023-05-19T00:50:48.519Z,6.90
2023-05-19T00:52:59.783Z,9.70
2023-05-19T00:54:08.070Z,8.30
2023-05-19T00:55:15.842Z,8.30
2023-05-19T00:56:23.572Z,9.10
2023-05-19T00:57:33.210Z,6.30
2023-05-19T00:58:39.309Z,8.40
2023-05-19T00:59:45.903Z,7.20
2023-05-19T01:00:54.591Z,7.10
2023-05-19T01:02:03.142Z,6.90
2023-05-19T01:03:13.049Z,7.50
2023-05-19T01:04:21.915Z,7.50
2023-05-19T01:05:28.435Z,8.40
2023-05-19T01:06:35.114Z,10.20
2023-05-19T01:07:43.284Z,6.90
2023-05-19T01:08:49.156Z,8.10
2023-05-19T01:09:55.637Z,8.70
2023-05-19T01:11:03.128Z,8.50
2023-05-19T01:12:10.734Z,9.30
2023-05-19T01:13:17.564Z,6.90
2023-05-19T01:14:23.842Z,6.70
2023-05-19T01:15:34.468Z,6.80
2023-05-19T01:16:47.918Z,6.40
2023-05-19T01:17:59.403Z,7.50
2023-05-19T01:19:18.097Z,7.20
2023-05-19T01:20:32.806Z,6.50
2023-05-19T01:22:23.034Z,6.60
2023-05-19T01:23:40.980Z,7.10
2023-05-19T01:25:20.002Z,7.20
2023-05-19T01:27:10.741Z,8.10
2023-05-19T01:28:32.341Z,8.90
2023-05-19T01:29:55.220Z,7.10
2023-05-19T01:31:06.067Z,7.80
2023-05-19T01:32:15.169Z,9.20
2023-05-19T01:33:24.256Z,6.80
2023-05-19T01:34:34.139Z,7.00
2023-05-19T01:35:42.036Z,7.00
2023-05-19T01:36:51.369Z,6.50
2023-05-19T01:38:02.492Z,7.50
2023-05-19T01:39:08.672Z,8.50
2023-05-19T01:40:17.373Z,7.40
2023-05-19T01:42:30.204Z,8.60
2023-05-19T01:43:37.459Z,8.30
2023-05-19T01:44:44.851Z,9.30
2023-05-19T01:45:50.994Z,10.60
2023-05-19T01:46:57.496Z,7.80
2023-05-19T01:48:09.983Z,7.60
2023-05-19T01:49:17.072Z,8.60
2023-05-19T01:50:24.025Z,5.70
2023-05-19T01:51:31.490Z,6.60
2023-05-19T01:52:38.051Z,6.90
2023-05-19T01:53:44.247Z,6.70
2023-05-19T01:54:50.528Z,6.80
2023-05-19T01:55:59.838Z,7.90
2023-05-19T01:57:24.557Z,9.20
2023-05-19T01:58:40.772Z,8.40
2023-05-19T01:59:59.923Z,8.70
2023-05-19T02:01:18.303Z,8.40
2023-05-19T02:02:36.144Z,8.10
2023-05-19T02:04:11.825Z,8.40
2023-05-19T02:05:29.789Z,7.20
2023-05-19T02:06:47.899Z,6.90
2023-05-19T02:08:03.673Z,7.60
2023-05-19T02:09:16.899Z,5.20
2023-05-19T02:10:31.419Z,5.90
2023-05-19T02:11:42.490Z,9.10
2023-05-19T02:12:52.730Z,9.00
2023-05-19T02:14:03.566Z,7.60
2023-05-19T02:15:15.722Z,7.90
2023-05-19T02:16:25.646Z,10.40
2023-05-19T02:17:36.408Z,6.40
2023-05-19T02:18:45.868Z,8.90
2023-05-19T02:19:53.047Z,8.90
2023-05-19T02:20:59.463Z,8.00
2023-05-19T02:22:07.723Z,8.80
2023-05-19T02:23:13.546Z,8.40
2023-05-19T02:24:23.205Z,9.10
2023-05-19T02:25:29.421Z,6.60
2023-05-19T02:26:35.836Z,5.90
2023-05-19T02:27:43.845Z,7.70
2023-05-19T02:28:49.542Z,8.40
2023-05-19T02:29:57.028Z,8.20
2023-05-19T02:31:09.799Z,7.80
2023-05-19T02:32:19.664Z,6.50
2023-05-19T02:33:26.424Z,7.30
2023-05-19T02:34:32.764Z,7.10
2023-05-19T02:35:39.124Z,8.50
2023-05-19T02:36:45.509Z,8.10
2023-05-19T02:37:51.662Z,8.40
2023-05-19T02:38:57.979Z,5.80
2023-05-19T02:40:04.489Z,6.60
2023-05-19T02:41:10.949Z,5.80
2023-05-19T02:42:20.473Z,7.20
2023-05-19T02:43:26.708Z,7.90
2023-05-19T02:44:32.470Z,7.30
2023-05-19T02:45:38.473Z,6.90
2023-05-19T02:46:46.104Z,9.00
2023-05-19T02:47:52.721Z,9.60
2023-05-19T02:49:00.006Z,9.10
2023-05-19T02:50:08.242Z,12.40
2023-05-19T02:51:14.241Z,8.10
2023-05-19T02:52:20.225Z,7.10
2023-05-19T02:53:27.229Z,8.60
2023-05-19T02:54:34.081Z,9.50
2023-05-19T02:55:40.296Z,9.60
2023-05-19T02:56:47.603Z,8.20
2023-05-19T02:57:53.561Z,7.60
2023-05-19T02:58:59.664Z,10.80
2023-05-19T03:00:09.537Z,8.70
2023-05-19T03:01:15.870Z,10.60
2023-05-19T03:02:22.186Z,8.80
2023-05-19T03:03:28.834Z,9.60
2023-05-19T03:04:42.243Z,10.10
2023-05-19T03:05:48.784Z,11.60
2023-05-19T03:06:54.862Z,11.00
2023-05-19T03:08:00.784Z,11.40
2023-05-19T03:09:07.667Z,11.10
2023-05-19T03:10:13.890Z,11.50
2023-05-19T03:11:20.387Z,16.70
2023-05-19T03:12:26.655Z,13.40
2023-05-19T03:13:33.034Z,10.50
2023-05-19T03:14:39.219Z,7.70
2023-05-19T03:15:45.306Z,11.00
2023-05-19T03:16:51.539Z,9.30
2023-05-19T03:17:58.210Z,16.30
2023-05-19T03:19:04.206Z,12.60
2023-05-19T03:20:16.052Z,11.10
2023-05-19T03:21:22.297Z,11.70
2023-05-19T03:22:28.902Z,13.60
2023-05-19T03:23:35.329Z,12.20
2023-05-19T03:24:41.298Z,8.50
2023-05-19T03:25:47.807Z,8.40
2023-05-19T03:26:55.027Z,10.20
2023-05-19T03:28:01.748Z,10.20
2023-05-19T03:29:08.184Z,13.20
2023-05-19T03:30:15.675Z,10.50
2023-05-19T03:31:22.281Z,12.10
2023-05-19T03:32:28.429Z,8.50
2023-05-19T03:33:35.311Z,8.30
2023-05-19T03:34:41.281Z,10.10
2023-05-19T03:35:47.539Z,8.30
2023-05-19T03:36:53.752Z,14.00
2023-05-19T03:37:59.564Z,9.50
2023-05-19T03:39:07.330Z,14.40
2023-05-19T03:40:15.918Z,9.90
2023-05-19T03:41:24.621Z,14.70
2023-05-19T03:42:30.989Z,10.90
2023-05-19T03:43:36.998Z,14.10
2023-05-19T03:44:44.664Z,10.40
2023-05-19T03:45:53.031Z,10.30
2023-05-19T03:47:01.555Z,8.40
2023-05-19T03:48:08.808Z,12.30
2023-05-19T03:49:15.229Z,10.70
2023-05-19T03:50:24.337Z,10.00
2023-05-19T03:52:41.026Z,11.50
2023-05-19T03:53:50.842Z,13.40
2023-05-19T03:54:58.680Z,16.40
2023-05-19T03:56:07.629Z,13.90
2023-05-19T03:57:14.002Z,8.90
2023-05-19T03:58:19.869Z,12.00
2023-05-19T03:59:26.553Z,12.00
2023-05-19T04:00:34.190Z,11.80
2023-05-19T04:01:41.214Z,14.60
2023-05-19T04:02:47.350Z,14.20
2023-05-19T04:03:54.209Z,11.60
2023-05-19T04:05:01.209Z,11.00
2023-05-19T04:06:08.997Z,12.00
2023-05-19T04:07:14.804Z,10.70
2023-05-19T04:08:20.663Z,13.10
2023-05-19T04:09:29.072Z,12.30
2023-05-19T04:10:35.127Z,17.80
2023-05-19T04:11:41.569Z,14.00
2023-05-19T04:12:48.015Z,16.20
2023-05-19T04:13:54.282Z,16.40
2023-05-19T04:15:00.594Z,14.20
2023-05-19T04:16:10.391Z,12.20
2023-05-19T04:17:16.427Z,10.00
2023-05-19T04:18:22.823Z,11.10
2023-05-19T04:19:29.200Z,14.30
2023-05-19T04:20:37.356Z,12.70
2023-05-19T04:21:44.273Z,10.30
2023-05-19T04:22:50.795Z,12.30
2023-05-19T04:23:59.294Z,12.30
2023-05-19T04:25:06.134Z,11.60
2023-05-19T04:26:15.460Z,12.50
2023-05-19T04:27:22.230Z,12.70
2023-05-19T04:28:28.983Z,12.60
2023-05-19T04:29:35.694Z,10.80
2023-05-19T04:30:42.707Z,11.20
2023-05-19T04:31:49.166Z,11.90
2023-05-19T04:32:59.519Z,15.00
2023-05-19T04:34:05.589Z,14.30
2023-05-19T04:35:13.945Z,13.00
2023-05-19T04:36:22.388Z,12.80
2023-05-19T04:37:31.356Z,13.10
2023-05-19T04:38:42.911Z,11.40
2023-05-19T04:39:48.893Z,10.30
2023-05-19T04:40:56.665Z,10.40
2023-05-19T04:42:03.331Z,10.80
2023-05-19T04:43:11.380Z,11.70
2023-05-19T04:44:18.873Z,11.50
2023-05-19T04:45:28.082Z,9.90
2023-05-19T04:46:34.079Z,11.70
2023-05-19T04:48:51.032Z,12.70
2023-05-19T04:49:57.135Z,12.10
2023-05-19T04:51:04.036Z,12.70
2023-05-19T04:52:11.230Z,10.20
2023-05-19T04:53:17.897Z,11.10
2023-05-19T04:54:24.200Z,11.30
2023-05-19T04:55:30.427Z,13.20
2023-05-19T04:56:36.807Z,14.00
2023-05-19T04:57:43.601Z,13.40
2023-05-19T04:58:52.033Z,12.60
2023-05-19T05:00:00.287Z,14.50
2023-05-19T05:01:07.020Z,16.70
2023-05-19T05:02:13.062Z,10.50
2023-05-19T05:03:26.746Z,14.40
2023-05-19T05:04:33.641Z,11.70
2023-05-19T05:05:39.772Z,13.00
2023-05-19T05:06:48.882Z,13.60
2023-05-19T05:07:55.135Z,15.80
2023-05-19T05:09:04.472Z,14.90
2023-05-19T05:10:13.070Z,13.20
2023-05-19T05:11:23.351Z,14.20
2023-05-19T05:12:31.044Z,16.10
2023-05-19T05:13:38.538Z,13.90
2023-05-19T05:14:46.549Z,13.00
2023-05-19T05:15:56.076Z,13.00
2023-05-19T05:17:05.046Z,14.30
2023-05-19T05:18:12.911Z,17.30
2023-05-19T05:19:24.171Z,16.00
2023-05-19T05:20:34.425Z,11.60
2023-05-19T05:21:47.947Z,16.90
2023-05-19T05:22:55.454Z,11.40
2023-05-19T05:24:03.901Z,15.70
2023-05-19T05:25:12.706Z,13.40
2023-05-19T05:27:27.165Z,15.70
2023-05-19T05:28:33.497Z,17.70
2023-05-19T05:29:39.652Z,12.50
2023-05-19T05:30:47.311Z,15.80
2023-05-19T05:31:53.537Z,14.60
2023-05-19T05:33:00.277Z,13.10
2023-05-19T05:34:06.794Z,13.70
2023-05-19T05:35:16.166Z,12.90
2023-05-19T05:36:22.425Z,12.70
2023-05-19T05:37:31.497Z,13.30
2023-05-19T05:38:37.873Z,13.30
2023-05-19T05:39:43.934Z,12.70
2023-05-19T05:40:49.715Z,10.90
2023-05-19T05:41:56.016Z,16.20
2023-05-19T05:43:02.453Z,15.30
2023-05-19T05:44:08.839Z,13.10
2023-05-19T05:45:14.866Z,11.60
2023-05-19T05:46:21.302Z,15.30
2023-05-19T05:47:29.575Z,12.40
2023-05-19T05:48:39.020Z,12.60
2023-05-19T05:49:49.919Z,19.60
2023-05-19T05:51:00.389Z,14.00
2023-05-19T05:53:20.673Z,13.60
2023-05-19T05:54:28.992Z,16.50
2023-05-19T05:55:36.943Z,11.60
2023-05-19T05:56:45.034Z,13.80
2023-05-19T05:57:52.611Z,15.10
2023-05-19T05:58:59.045Z,10.40
2023-05-19T06:00:28.764Z,13.10
2023-05-19T06:01:37.368Z,11.90
2023-05-19T06:02:46.549Z,12.90
2023-05-19T06:03:52.818Z,11.50
2023-05-19T06:04:59.172Z,15.80
2023-05-19T06:06:07.439Z,11.60
2023-05-19T06:07:13.844Z,12.60
2023-05-19T06:08:20.305Z,12.90
2023-05-19T06:09:27.902Z,14.50
2023-05-19T06:10:36.002Z,14.50
2023-05-19T06:11:42.456Z,14.60
2023-05-19T06:12:48.435Z,14.70
2023-05-19T06:13:54.586Z,14.00
2023-05-19T06:15:01.051Z,13.00
2023-05-19T06:16:08.388Z,13.80
2023-05-19T06:17:14.761Z,12.70
2023-05-19T06:18:21.523Z,14.60
2023-05-19T06:19:27.854Z,14.20
2023-05-19T06:20:34.902Z,16.50
2023-05-19T06:22:49.419Z,12.60
2023-05-19T06:23:56.133Z,13.70
2023-05-19T06:25:03.684Z,12.10
2023-05-19T06:26:09.875Z,13.60
2023-05-19T06:27:15.990Z,14.20
2023-05-19T06:28:22.383Z,11.00
2023-05-19T06:29:29.120Z,11.80
2023-05-19T06:30:37.985Z,12.50
2023-05-19T06:31:44.385Z,13.50
2023-05-19T06:32:50.906Z,10.50
2023-05-19T06:33:57.323Z,13.00
2023-05-19T06:35:05.496Z,13.80
2023-05-19T06:36:12.364Z,14.20
2023-05-19T06:37:21.137Z,14.20
2023-05-19T06:38:27.708Z,13.80
2023-05-19T06:39:33.641Z,11.20
2023-05-19T06:40:40.688Z,12.50
2023-05-19T06:41:47.733Z,13.30
2023-05-19T06:42:53.997Z,11.10
2023-05-19T06:44:00.366Z,11.30
2023-05-19T06:45:09.546Z,13.70
2023-05-19T06:46:18.014Z,12.90
2023-05-19T06:47:24.606Z,13.30
2023-05-19T06:48:30.692Z,11.20
2023-05-19T06:49:36.741Z,11.30
2023-05-19T06:50:45.078Z,12.50
2023-05-19T06:51:51.366Z,10.90
2023-05-19T06:52:58.493Z,10.20
2023-05-19T06:54:05.012Z,12.20
2023-05-19T06:55:11.673Z,12.20
2023-05-19T06:56:19.975Z,11.00
2023-05-19T06:57:26.458Z,11.50
2023-05-19T06:58:32.315Z,11.80
2023-05-19T06:59:41.098Z,14.40
2023-05-19T07:01:52.489Z,9.50
2023-05-19T07:02:58.758Z,13.10
2023-05-19T07:04:06.513Z,10.80
2023-05-19T07:05:13.176Z,14.70
2023-05-19T07:06:19.233Z,11.10
2023-05-19T07:07:27.941Z,12.00
2023-05-19T07:08:34.911Z,13.10
2023-05-19T07:09:40.932Z,10.00
2023-05-19T07:10:46.758Z,13.20
2023-05-19T07:11:53.064Z,10.90
2023-05-19T07:12:59.617Z,12.40
2023-05-19T07:14:06.493Z,12.50
2023-05-19T07:15:13.802Z,10.80
2023-05-19T07:16:19.850Z,9.60
2023-05-19T07:17:26.034Z,10.20
2023-05-19T07:18:32.268Z,11.40
2023-05-19T07:19:38.183Z,11.40
2023-05-19T07:20:44.863Z,13.80
2023-05-19T07:21:51.044Z,12.50
2023-05-19T07:22:57.359Z,11.30
2023-05-19T07:24:04.347Z,9.70
2023-05-19T07:25:12.315Z,11.70
2023-05-19T07:26:20.947Z,11.70
2023-05-19T07:27:31.400Z,10.80
2023-05-19T07:28:40.772Z,10.00
2023-05-19T07:29:47.888Z,10.40
2023-05-19T07:30:55.110Z,12.40
2023-05-19T07:32:01.577Z,11.40
2023-05-19T07:33:08.440Z,10.30
2023-05-19T07:34:15.583Z,10.60
2023-05-19T07:35:24.891Z,13.20
2023-05-19T07:36:31.372Z,10.40
2023-05-19T07:37:38.450Z,8.60
2023-05-19T07:38:46.660Z,11.90
2023-05-19T07:39:52.783Z,9.70
2023-05-19T07:40:59.269Z,10.20
2023-05-19T07:42:06.419Z,10.90
2023-05-19T07:43:12.467Z,8.70
2023-05-19T07:44:18.848Z,10.40
2023-05-19T07:45:24.810Z,12.60
2023-05-19T07:46:31.298Z,8.90
2023-05-19T07:47:37.346Z,11.40
2023-05-19T07:48:43.895Z,9.10
2023-05-19T07:49:51.765Z,9.90
2023-05-19T07:50:58.216Z,9.90
2023-05-19T07:52:04.429Z,10.10
2023-05-19T07:53:11.536Z,10.90
2023-05-19T07:54:18.546Z,10.40
2023-05-19T07:55:24.634Z,9.90
2023-05-19T07:56:30.605Z,9.20
2023-05-19T07:57:40.195Z,9.30
2023-05-19T07:58:46.424Z,11.00
2023-05-19T07:59:52.893Z,9.90
2023-05-19T08:01:02.486Z,7.40
2023-05-19T08:02:11.003Z,9.40
2023-05-19T08:03:18.935Z,8.90
2023-05-19T08:04:26.867Z,8.00
2023-05-19T08:05:32.773Z,12.00
2023-05-19T08:06:39.943Z,9.30
2023-05-19T08:07:45.944Z,8.30
2023-05-19T08:08:55.811Z,10.00
2023-05-19T08:10:01.991Z,10.10
2023-05-19T08:11:08.277Z,10.30
2023-05-19T08:12:15.496Z,9.00
2023-05-19T08:13:21.951Z,9.70
2023-05-19T08:14:28.045Z,9.10
2023-05-19T08:15:36.522Z,8.80
2023-05-19T08:16:45.047Z,8.50
2023-05-19T08:17:53.340Z,8.00
2023-05-19T08:19:02.839Z,10.70
2023-05-19T08:20:12.537Z,9.10
2023-05-19T08:21:18.870Z,9.40
2023-05-19T08:22:24.896Z,12.80
2023-05-19T08:23:31.071Z,7.20
2023-05-19T08:24:37.558Z,7.70
2023-05-19T08:25:43.488Z,8.90
2023-05-19T08:26:50.112Z,8.20
2023-05-19T08:27:56.580Z,9.50
2023-05-19T08:29:02.749Z,9.30
2023-05-19T08:30:11.336Z,8.20
2023-05-19T08:31:19.428Z,8.00
2023-05-19T08:32:26.038Z,8.40
2023-05-19T08:33:33.128Z,6.70
2023-05-19T08:34:39.353Z,8.00
2023-05-19T08:35:46.321Z,10.40
2023-05-19T08:36:55.574Z,9.60
2023-05-19T08:38:01.556Z,8.70
2023-05-19T08:39:07.608Z,9.00
2023-05-19T08:40:18.524Z,9.90
2023-05-19T08:41:24.929Z,9.40
2023-05-19T08:42:33.574Z,9.90
2023-05-19T08:43:40.122Z,8.20
2023-05-19T08:44:46.696Z,9.80
2023-05-19T08:45:54.680Z,8.70
2023-05-19T08:47:12.807Z,9.10
2023-05-19T08:48:20.437Z,8.30
2023-05-19T08:49:31.783Z,11.50
2023-05-19T08:50:44.292Z,9.60
2023-05-19T08:51:57.195Z,9.90
2023-05-19T08:53:28.979Z,8.80
2023-05-19T08:54:51.264Z,10.60
2023-05-19T08:56:10.434Z,9.60
2023-05-19T08:57:17.491Z,10.70
2023-05-19T08:58:24.039Z,8.70
2023-05-19T08:59:31.188Z,9.00
2023-05-19T09:00:38.831Z,8.10
2023-05-19T09:01:47.163Z,10.10
2023-05-19T09:03:01.419Z,8.50
2023-05-19T09:04:21.211Z,9.70
2023-05-19T09:05:27.950Z,9.90
2023-05-19T09:06:35.171Z,7.60
2023-05-19T09:07:44.262Z,7.80
2023-05-19T09:08:50.353Z,8.60
2023-05-19T09:09:56.914Z,7.80
2023-05-19T09:11:03.580Z,6.60
2023-05-19T09:12:10.363Z,10.50
2023-05-19T09:13:16.916Z,8.80
2023-05-19T09:14:23.593Z,7.10
2023-05-19T09:15:31.966Z,7.70
2023-05-19T09:16:39.447Z,10.40
2023-05-19T09:17:49.192Z,10.00
2023-05-19T09:18:59.678Z,8.60
2023-05-19T09:20:11.887Z,10.50
2023-05-19T09:21:20.230Z,12.70
2023-05-19T09:22:28.248Z,11.70
2023-05-19T09:23:35.827Z,8.70
2023-05-19T09:24:45.691Z,9.00
2023-05-19T09:25:53.303Z,11.10
2023-05-19T09:27:00.851Z,10.30
2023-05-19T09:28:11.113Z,11.30
2023-05-19T09:29:19.290Z,8.50
2023-05-19T09:30:26.384Z,10.90
2023-05-19T09:31:36.022Z,9.50
2023-05-19T09:32:42.322Z,8.30
2023-05-19T09:33:54.588Z,11.60
2023-05-19T09:35:03.205Z,13.80
2023-05-19T09:36:11.645Z,9.20
2023-05-19T09:37:22.461Z,9.20
2023-05-19T09:38:30.625Z,10.70
2023-05-19T09:39:40.292Z,9.10
2023-05-19T09:40:49.956Z,10.30
2023-05-19T09:41:59.646Z,8.90
2023-05-19T09:43:11.759Z,10.40
2023-05-19T09:44:28.975Z,9.80
2023-05-19T09:45:36.190Z,9.80
2023-05-19T09:46:49.942Z,9.30
2023-05-19T09:48:04.928Z,10.60
2023-05-19T09:49:16.129Z,8.90
2023-05-19T09:50:22.932Z,10.80
2023-05-19T09:51:29.645Z,9.40
2023-05-19T09:52:43.266Z,8.90
2023-05-19T09:53:52.490Z,9.20
2023-05-19T09:55:00.297Z,14.50
2023-05-19T09:56:08.895Z,9.60
2023-05-19T09:57:15.338Z,9.70
2023-05-19T09:58:22.407Z,10.40
2023-05-19T09:59:32.571Z,11.40
2023-05-19T10:00:43.471Z,10.50
2023-05-19T10:01:50.406Z,8.40
2023-05-19T10:02:57.963Z,12.70
2023-05-19T10:04:07.305Z,11.90
2023-05-19T10:05:17.910Z,10.10
2023-05-19T10:06:26.214Z,11.60
2023-05-19T10:07:34.325Z,12.40
2023-05-19T10:08:43.657Z,11.70
2023-05-19T10:09:53.043Z,8.90
2023-05-19T10:11:00.142Z,10.00
2023-05-19T10:12:11.344Z,10.60
2023-05-19T10:13:21.465Z,11.40
2023-05-19T10:14:29.982Z,8.10
2023-05-19T10:15:53.707Z,13.00
2023-05-19T10:17:04.141Z,10.40
2023-05-19T10:18:13.555Z,11.20
2023-05-19T10:19:24.017Z,9.70
2023-05-19T10:20:31.187Z,9.30
2023-05-19T10:21:37.744Z,10.20
2023-05-19T10:22:50.290Z,7.50
2023-05-19T10:23:56.602Z,10.80
2023-05-19T10:25:02.896Z,12.70
2023-05-19T10:26:12.641Z,12.40
2023-05-19T10:27:20.118Z,9.60
2023-05-19T10:28:32.156Z,9.40
2023-05-19T10:29:43.454Z,10.60
2023-05-19T10:30:53.905Z,8.40
2023-05-19T10:32:06.744Z,12.30
2023-05-19T10:33:17.341Z,10.50
2023-05-19T10:34:51.802Z,13.00
2023-05-19T10:36:16.127Z,8.70
2023-05-19T10:37:31.903Z,11.80
2023-05-19T10:38:50.227Z,9.50
2023-05-19T10:39:58.446Z,8.20
2023-05-19T10:41:13.044Z,9.60
2023-05-19T10:42:35.281Z,10.20
2023-05-19T10:43:52.896Z,11.40
2023-05-19T10:45:14.360Z,9.40
2023-05-19T10:46:23.146Z,11.20
2023-05-19T10:47:30.170Z,10.30
2023-05-19T10:48:36.758Z,11.40
2023-05-19T10:49:43.104Z,11.10
2023-05-19T10:50:53.132Z,10.00
2023-05-19T10:52:00.830Z,9.40
2023-05-19T10:53:14.166Z,10.70
2023-05-19T10:54:46.278Z,9.40
2023-05-19T10:56:07.684Z,10.10
2023-05-19T10:57:18.302Z,9.20
2023-05-19T10:58:50.501Z,12.40
2023-05-19T10:59:57.798Z,9.80
2023-05-19T11:01:09.314Z,8.60
2023-05-19T11:02:42.154Z,10.10
2023-05-19T11:03:53.275Z,10.10
2023-05-19T11:05:09.467Z,9.90
2023-05-19T11:06:30.865Z,11.30
2023-05-19T11:07:37.422Z,10.50
2023-05-19T11:08:44.245Z,8.60
2023-05-19T11:09:54.014Z,9.60
2023-05-19T11:11:15.752Z,9.30
2023-05-19T11:12:25.475Z,10.70
2023-05-19T11:13:36.703Z,12.70
2023-05-19T11:14:44.431Z,8.90
2023-05-19T11:15:50.437Z,10.10
2023-05-19T11:17:00.722Z,9.90
2023-05-19T11:18:07.764Z,11.90
2023-05-19T11:19:20.309Z,13.30
2023-05-19T11:20:32.446Z,10.70
2023-05-19T11:21:55.472Z,10.80
2023-05-19T11:23:07.175Z,8.10
2023-05-19T11:24:41.075Z,8.30
2023-05-19T11:25:52.224Z,8.80
2023-05-19T11:26:59.985Z,9.10
2023-05-19T11:28:06.885Z,9.80
2023-05-19T11:29:13.076Z,9.00
2023-05-19T11:30:20.355Z,9.30
2023-05-19T11:31:28.581Z,9.90
2023-05-19T11:32:36.031Z,9.00
2023-05-19T11:33:42.663Z,10.90
2023-05-19T11:34:52.715Z,10.00
2023-05-19T11:36:00.423Z,17.10
2023-05-19T11:37:08.635Z,10.20
2023-05-19T11:38:15.382Z,9.90
2023-05-19T11:39:22.215Z,9.80
2023-05-19T11:40:29.738Z,9.40
2023-05-19T11:41:41.913Z,9.60
2023-05-19T11:42:48.507Z,10.20
2023-05-19T11:43:55.356Z,11.00
2023-05-19T11:45:01.658Z,8.80
2023-05-19T11:46:10.093Z,11.20
2023-05-19T11:47:17.986Z,12.00
2023-05-19T11:48:26.903Z,9.40
2023-05-19T11:49:33.822Z,9.90
2023-05-19T11:50:44.643Z,9.70
2023-05-19T11:51:51.297Z,8.50
2023-05-19T11:52:59.920Z,8.30
2023-05-19T11:54:06.709Z,10.50
2023-05-19T11:55:17.909Z,11.50
2023-05-19T11:56:25.322Z,7.50
2023-05-19T11:57:31.200Z,11.20
2023-05-19T11:58:39.363Z,10.90
2023-05-19T11:59:55.290Z,12.70
2023-05-19T12:01:07.434Z,8.80
2023-05-19T12:02:21.429Z,8.50
2023-05-19T12:03:28.796Z,12.50
2023-05-19T12:04:36.829Z,7.20
2023-05-19T12:05:47.150Z,9.50
2023-05-19T12:06:55.516Z,10.60
2023-05-19T12:08:02.865Z,9.30
2023-05-19T12:09:09.888Z,10.40
2023-05-19T12:10:20.442Z,9.40
2023-05-19T12:11:28.340Z,9.40
2023-05-19T12:12:36.306Z,11.30
2023-05-19T12:13:42.457Z,7.80
2023-05-19T12:14:53.761Z,9.00
2023-05-19T12:16:03.852Z,10.60
2023-05-19T12:17:16.661Z,8.60
2023-05-19T12:18:22.762Z,7.50
2023-05-19T12:19:28.943Z,8.40
2023-05-19T12:20:36.632Z,7.80
2023-05-19T12:21:43.252Z,10.20
2023-05-19T12:22:51.178Z,11.10
2023-05-19T12:23:59.236Z,9.30
2023-05-19T12:25:07.131Z,9.90
2023-05-19T12:26:13.079Z,8.50
2023-05-19T12:27:27.627Z,9.80
2023-05-19T12:28:33.632Z,8.00
2023-05-19T12:29:40.328Z,11.00
2023-05-19T12:30:52.960Z,8.40
2023-05-19T12:32:03.097Z,10.70
2023-05-19T12:33:13.250Z,10.70
2023-05-19T12:34:19.104Z,8.60
2023-05-19T12:35:29.831Z,11.40
2023-05-19T12:36:35.692Z,7.80
2023-05-19T12:37:45.650Z,9.10
2023-05-19T12:38:57.625Z,11.20
2023-05-19T12:40:05.828Z,9.70
2023-05-19T12:41:15.611Z,12.30
2023-05-19T12:42:22.834Z,8.20
2023-05-19T12:43:28.877Z,7.90
2023-05-19T12:44:40.795Z,8.90
2023-05-19T12:45:47.591Z,7.80
2023-05-19T12:46:57.426Z,9.20
2023-05-19T12:48:07.261Z,6.90
2023-05-19T12:49:14.806Z,7.80
2023-05-19T12:50:20.828Z,7.50
2023-05-19T12:51:26.999Z,7.30
2023-05-19T12:52:42.581Z,7.70
2023-05-19T12:53:50.506Z,9.10
2023-05-19T12:55:08.451Z,7.90
2023-05-19T12:56:16.495Z,8.70
2023-05-19T12:57:23.355Z,10.10
2023-05-19T12:58:34.348Z,7.30
2023-05-19T12:59:42.888Z,10.30
2023-05-19T13:00:49.878Z,9.10
2023-05-19T13:02:00.395Z,9.70
2023-05-19T13:03:10.333Z,8.70
2023-05-19T13:04:17.679Z,8.50
2023-05-19T13:05:24.733Z,8.20
2023-05-19T13:06:33.453Z,8.20
2023-05-19T13:07:40.256Z,11.10
2023-05-19T13:08:49.688Z,8.60
2023-05-19T13:09:57.024Z,7.00
2023-05-19T13:11:04.635Z,7.50
2023-05-19T13:12:11.316Z,8.50
2023-05-19T13:13:18.325Z,9.60
2023-05-19T13:14:24.654Z,8.90
2023-05-19T13:15:37.688Z,10.90
2023-05-19T13:16:43.860Z,8.80
2023-05-19T13:17:50.703Z,7.50
2023-05-19T13:18:56.859Z,8.90
2023-05-19T13:20:05.145Z,10.70
2023-05-19T13:21:11.192Z,10.60
2023-05-19T13:22:17.152Z,9.70
2023-05-19T13:23:23.273Z,10.70
2023-05-19T13:24:29.603Z,7.40
2023-05-19T13:25:36.670Z,6.80
2023-05-19T13:26:42.876Z,8.00
2023-05-19T13:27:49.770Z,8.50
2023-05-19T13:28:56.293Z,9.30
2023-05-19T13:30:03.117Z,7.00
2023-05-19T13:31:09.458Z,9.20
2023-05-19T13:32:15.849Z,7.60
2023-05-19T13:33:22.662Z,7.40
2023-05-19T13:34:29.342Z,6.90
2023-05-19T13:35:39.097Z,6.90
2023-05-19T13:36:49.705Z,7.10
2023-05-19T13:37:57.662Z,6.60
2023-05-19T13:39:04.472Z,8.60
2023-05-19T13:40:16.215Z,9.30
2023-05-19T13:41:29.666Z,6.50
2023-05-19T13:42:36.685Z,8.10
2023-05-19T13:43:42.596Z,8.20
2023-05-19T13:44:49.000Z,7.40
2023-05-19T13:45:55.073Z,9.50
2023-05-19T13:47:01.273Z,9.80
2023-05-19T13:48:11.501Z,7.40
2023-05-19T13:49:18.720Z,9.70
2023-05-19T13:50:25.177Z,7.50
2023-05-19T13:51:31.591Z,9.30
2023-05-19T13:52:37.965Z,7.80
2023-05-19T13:53:44.145Z,7.90
2023-05-19T13:54:51.199Z,6.50
2023-05-19T13:55:57.684Z,6.90
2023-05-19T13:57:04.186Z,8.50
2023-05-19T13:58:11.322Z,7.60
2023-05-19T13:59:21.464Z,9.60
2023-05-19T14:00:27.893Z,7.70
2023-05-19T14:01:34.639Z,7.30
2023-05-19T14:02:41.092Z,6.40
2023-05-19T14:03:48.959Z,9.20
2023-05-19T14:04:57.141Z,6.00
2023-05-19T14:06:04.910Z,8.00
2023-05-19T14:07:11.196Z,6.20
2023-05-19T14:08:19.875Z,7.50
2023-05-19T14:09:27.431Z,7.10
2023-05-19T14:10:36.000Z,8.30
2023-05-19T14:11:42.221Z,6.40
2023-05-19T14:13:12.242Z,6.70
2023-05-19T14:14:14.915Z,6.70
2023-05-19T14:15:21.894Z,7.40
2023-05-19T14:16:29.047Z,7.90
2023-05-19T14:17:35.183Z,7.90
2023-05-19T14:18:41.753Z,7.00
2023-05-19T14:19:48.135Z,9.10
2023-05-19T14:20:54.431Z,6.60
2023-05-19T14:22:00.631Z,7.50
2023-05-19T14:23:07.007Z,10.70
2023-05-19T14:24:13.504Z,8.60
2023-05-19T14:25:20.342Z,7.10
2023-05-19T14:26:28.618Z,7.40
2023-05-19T14:27:35.607Z,6.00
2023-05-19T14:28:42.517Z,5.10
2023-05-19T14:29:49.787Z,8.20
2023-05-19T14:30:56.212Z,8.60
2023-05-19T14:32:03.352Z,8.10
2023-05-19T14:33:10.029Z,7.50
2023-05-19T14:34:22.235Z,6.70
2023-05-19T14:35:28.828Z,9.40
2023-05-19T14:36:36.004Z,6.70
2023-05-19T14:37:41.965Z,6.60
2023-05-19T14:38:47.785Z,8.90
2023-05-19T14:39:54.685Z,7.50
2023-05-19T14:41:00.800Z,6.90
2023-05-19T14:42:08.323Z,6.50
2023-05-19T14:43:15.715Z,6.80
2023-05-19T14:44:21.847Z,6.00
2023-05-19T14:45:31.075Z,5.70
2023-05-19T14:46:37.072Z,6.90
2023-05-19T14:47:43.513Z,7.90
2023-05-19T14:48:49.542Z,6.90
2023-05-19T14:49:55.854Z,6.20
2023-05-19T14:51:02.895Z,6.90
2023-05-19T14:52:10.094Z,6.60
2023-05-19T14:53:17.196Z,6.90
2023-05-19T14:54:23.448Z,9.20
2023-05-19T14:55:29.677Z,9.30
2023-05-19T14:56:36.340Z,7.10
2023-05-19T14:57:43.515Z,10.40
2023-05-19T14:58:50.500Z,7.60
2023-05-19T14:59:56.665Z,7.80
2023-05-19T15:01:03.172Z,6.80
2023-05-19T15:02:12.052Z,7.00
2023-05-19T15:03:18.733Z,10.40
2023-05-19T15:04:24.881Z,7.70
2023-05-19T15:05:30.882Z,6.90
2023-05-19T15:06:37.250Z,7.30
2023-05-19T15:07:43.305Z,8.10
2023-05-19T15:08:49.649Z,8.80
2023-05-19T15:09:55.682Z,7.50